sensor_id;sensor_type;location;lat;lon;timestamp;P1;durP1;ratioP1;P2;durP2;ratioP2
37049;SDS011;22958;51.232;6.826;2023-03-21T00:01:12;20.40;;;5.40;;
37049;SDS011;22958;51.232;6.826;2023-03-21T00:06:05;16.05;;;4.97;;
37049;SDS011;22958;51.232;6.826;2023-03-21T00:08:32;13.20;;;4.57;;
37049;SDS011;22958;51.232;6.826;2023-03-21T00:10:59;23.13;;;5.33;;
37049;SDS011;22958;51.232;6.826;2023-03-21T00:13:27;29.67;;;5.40;;
37049;SDS011;22958;51.232;6.826;2023-03-21T00:15:56;16.17;;;4.72;;
37049;SDS011;22958;51.232;6.826;2023-03-21T00:18:28;21.80;;;5.45;;
37049;SDS011;22958;51.232;6.826;2023-03-21T00:23:24;18.83;;;5.13;;
37049;SDS011;22958;51.232;6.826;2023-03-21T00:25:50;18.45;;;5.47;;
37049;SDS011;22958;51.232;6.826;2023-03-21T00:28:16;27.73;;;6.13;;
37049;SDS011;22958;51.232;6.826;2023-03-21T00:30:41;20.73;;;5.87;;
37049;SDS011;22958;51.232;6.826;2023-03-21T00:33:07;18.00;;;5.40;;
37049;SDS011;22958;51.232;6.826;2023-03-21T00:35:32;18.83;;;5.60;;
37049;SDS011;22958;51.232;6.826;2023-03-21T00:37:58;22.60;;;5.40;;
37049;SDS011;22958;51.232;6.826;2023-03-21T00:40:24;15.43;;;4.97;;
37049;SDS011;22958;51.232;6.826;2023-03-21T00:42:50;27.33;;;6.00;;
37049;SDS011;22958;51.232;6.826;2023-03-21T00:45:15;23.87;;;6.20;;
37049;SDS011;22958;51.232;6.826;2023-03-21T00:47:43;22.23;;;5.40;;
37049;SDS011;22958;51.232;6.826;2023-03-21T00:50:09;31.05;;;6.47;;
37049;SDS011;22958;51.232;6.826;2023-03-21T00:52:35;17.08;;;5.45;;
37049;SDS011;22958;51.232;6.826;2023-03-21T00:55:02;28.70;;;5.07;;
37049;SDS011;22958;51.232;6.826;2023-03-21T00:57:28;19.00;;;5.90;;
37049;SDS011;22958;51.232;6.826;2023-03-21T00:59:54;18.47;;;5.97;;
37049;SDS011;22958;51.232;6.826;2023-03-21T01:02:22;28.30;;;6.30;;
37049;SDS011;22958;51.232;6.826;2023-03-21T01:04:51;21.73;;;6.10;;
37049;SDS011;22958;51.232;6.826;2023-03-21T01:07:17;20.25;;;5.47;;
37049;SDS011;22958;51.232;6.826;2023-03-21T01:09:43;24.83;;;5.87;;
37049;SDS011;22958;51.232;6.826;2023-03-21T01:12:09;24.17;;;6.37;;
37049;SDS011;22958;51.232;6.826;2023-03-21T01:14:34;27.33;;;7.17;;
37049;SDS011;22958;51.232;6.826;2023-03-21T01:17:01;24.30;;;6.97;;
37049;SDS011;22958;51.232;6.826;2023-03-21T01:19:27;23.05;;;6.88;;
37049;SDS011;22958;51.232;6.826;2023-03-21T01:21:53;23.73;;;7.03;;
37049;SDS011;22958;51.232;6.826;2023-03-21T01:24:19;32.83;;;7.85;;
37049;SDS011;22958;51.232;6.826;2023-03-21T01:26:45;23.10;;;7.17;;
37049;SDS011;22958;51.232;6.826;2023-03-21T01:29:10;24.83;;;6.87;;
37049;SDS011;22958;51.232;6.826;2023-03-21T01:31:36;28.17;;;6.70;;
37049;SDS011;22958;51.232;6.826;2023-03-21T01:34:01;31.17;;;6.67;;
37049;SDS011;22958;51.232;6.826;2023-03-21T01:36:27;22.83;;;6.70;;
37049;SDS011;22958;51.232;6.826;2023-03-21T01:38:53;22.67;;;7.63;;
37049;SDS011;22958;51.232;6.826;2023-03-21T01:41:20;27.43;;;6.97;;
37049;SDS011;22958;51.232;6.826;2023-03-21T01:43:55;25.70;;;6.50;;
37049;SDS011;22958;51.232;6.826;2023-03-21T01:49:32;21.45;;;6.50;;
37049;SDS011;22958;51.232;6.826;2023-03-21T01:51:51;18.20;;;6.78;;
37049;SDS011;22958;51.232;6.826;2023-03-21T01:54:22;25.95;;;7.65;;
37049;SDS011;22958;51.232;6.826;2023-03-21T01:56:51;27.58;;;7.18;;
37049;SDS011;22958;51.232;6.826;2023-03-21T01:59:20;27.75;;;8.48;;
37049;SDS011;22958;51.232;6.826;2023-03-21T02:01:52;29.73;;;7.22;;
37049;SDS011;22958;51.232;6.826;2023-03-21T02:04:20;23.27;;;7.90;;
37049;SDS011;22958;51.232;6.826;2023-03-21T02:06:53;25.17;;;7.78;;
37049;SDS011;22958;51.232;6.826;2023-03-21T02:09:23;24.60;;;7.70;;
37049;SDS011;22958;51.232;6.826;2023-03-21T02:11:52;23.95;;;7.82;;
37049;SDS011;22958;51.232;6.826;2023-03-21T02:14:18;28.85;;;7.65;;
37049;SDS011;22958;51.232;6.826;2023-03-21T02:16:46;29.33;;;8.88;;
37049;SDS011;22958;51.232;6.826;2023-03-21T02:19:36;29.80;;;8.10;;
37049;SDS011;22958;51.232;6.826;2023-03-21T02:22:15;26.80;;;8.13;;
37049;SDS011;22958;51.232;6.826;2023-03-21T02:31:01;24.85;;;8.70;;
37049;SDS011;22958;51.232;6.826;2023-03-21T02:33:39;28.27;;;9.32;;
37049;SDS011;22958;51.232;6.826;2023-03-21T02:39:14;27.52;;;8.70;;
37049;SDS011;22958;51.232;6.826;2023-03-21T02:42:04;29.63;;;9.27;;
37049;SDS011;22958;51.232;6.826;2023-03-21T02:44:46;24.73;;;7.65;;
37049;SDS011;22958;51.232;6.826;2023-03-21T02:52:30;31.83;;;8.13;;
37049;SDS011;22958;51.232;6.826;2023-03-21T02:54:58;23.33;;;8.35;;
37049;SDS011;22958;51.232;6.826;2023-03-21T02:57:28;33.75;;;8.20;;
37049;SDS011;22958;51.232;6.826;2023-03-21T02:59:55;24.10;;;7.60;;
37049;SDS011;22958;51.232;6.826;2023-03-21T03:02:24;26.40;;;8.82;;
37049;SDS011;22958;51.232;6.826;2023-03-21T03:04:51;34.30;;;7.63;;
37049;SDS011;22958;51.232;6.826;2023-03-21T03:07:25;29.37;;;7.67;;
37049;SDS011;22958;51.232;6.826;2023-03-21T03:10:06;25.80;;;8.02;;
37049;SDS011;22958;51.232;6.826;2023-03-21T03:13:46;24.85;;;7.75;;
37049;SDS011;22958;51.232;6.826;2023-03-21T03:18:49;22.30;;;8.38;;
37049;SDS011;22958;51.232;6.826;2023-03-21T03:21:24;21.65;;;8.18;;
37049;SDS011;22958;51.232;6.826;2023-03-21T03:23:56;23.90;;;8.50;;
37049;SDS011;22958;51.232;6.826;2023-03-21T03:26:43;25.02;;;8.60;;
37049;SDS011;22958;51.232;6.826;2023-03-21T03:29:16;24.73;;;9.00;;
37049;SDS011;22958;51.232;6.826;2023-03-21T03:31:46;22.20;;;8.18;;
37049;SDS011;22958;51.232;6.826;2023-03-21T03:34:21;25.90;;;9.07;;
37049;SDS011;22958;51.232;6.826;2023-03-21T03:36:54;28.33;;;8.90;;
37049;SDS011;22958;51.232;6.826;2023-03-21T03:39:23;30.65;;;8.05;;
37049;SDS011;22958;51.232;6.826;2023-03-21T03:42:14;27.10;;;8.13;;
37049;SDS011;22958;51.232;6.826;2023-03-21T03:44:43;33.08;;;7.28;;
37049;SDS011;22958;51.232;6.826;2023-03-21T03:47:10;30.67;;;7.78;;
37049;SDS011;22958;51.232;6.826;2023-03-21T03:49:47;24.88;;;8.45;;
37049;SDS011;22958;51.232;6.826;2023-03-21T03:52:35;21.15;;;8.02;;
37049;SDS011;22958;51.232;6.826;2023-03-21T03:55:06;27.95;;;8.25;;
37049;SDS011;22958;51.232;6.826;2023-03-21T03:57:37;25.08;;;8.90;;
37049;SDS011;22958;51.232;6.826;2023-03-21T04:00:03;26.13;;;7.93;;
37049;SDS011;22958;51.232;6.826;2023-03-21T04:02:35;22.75;;;8.20;;
37049;SDS011;22958;51.232;6.826;2023-03-21T04:05:01;34.33;;;9.07;;
37049;SDS011;22958;51.232;6.826;2023-03-21T04:07:28;29.40;;;7.97;;
37049;SDS011;22958;51.232;6.826;2023-03-21T04:09:54;24.83;;;7.30;;
37049;SDS011;22958;51.232;6.826;2023-03-21T04:12:19;26.87;;;7.90;;
37049;SDS011;22958;51.232;6.826;2023-03-21T04:14:45;24.07;;;7.83;;
37049;SDS011;22958;51.232;6.826;2023-03-21T04:17:10;25.87;;;7.50;;
37049;SDS011;22958;51.232;6.826;2023-03-21T04:19:36;24.30;;;7.10;;
37049;SDS011;22958;51.232;6.826;2023-03-21T04:22:01;25.20;;;7.60;;
37049;SDS011;22958;51.232;6.826;2023-03-21T04:24:27;25.33;;;7.90;;
37049;SDS011;22958;51.232;6.826;2023-03-21T04:26:57;22.10;;;7.32;;
37049;SDS011;22958;51.232;6.826;2023-03-21T04:29:22;22.83;;;6.97;;
37049;SDS011;22958;51.232;6.826;2023-03-21T04:31:48;25.70;;;9.17;;
37049;SDS011;22958;51.232;6.826;2023-03-21T04:34:13;24.10;;;8.40;;
37049;SDS011;22958;51.232;6.826;2023-03-21T04:36:39;26.13;;;7.47;;
37049;SDS011;22958;51.232;6.826;2023-03-21T04:39:11;25.70;;;7.75;;
37049;SDS011;22958;51.232;6.826;2023-03-21T04:41:38;24.95;;;7.38;;
37049;SDS011;22958;51.232;6.826;2023-03-21T04:44:05;17.42;;;6.95;;
37049;SDS011;22958;51.232;6.826;2023-03-21T04:46:31;19.95;;;7.25;;
37049;SDS011;22958;51.232;6.826;2023-03-21T04:48:57;21.85;;;7.07;;
37049;SDS011;22958;51.232;6.826;2023-03-21T04:51:23;21.57;;;7.33;;
37049;SDS011;22958;51.232;6.826;2023-03-21T04:53:48;27.87;;;7.77;;
37049;SDS011;22958;51.232;6.826;2023-03-21T04:56:16;23.83;;;8.18;;
37049;SDS011;22958;51.232;6.826;2023-03-21T04:58:42;24.10;;;7.37;;
37049;SDS011;22958;51.232;6.826;2023-03-21T05:01:08;20.07;;;6.77;;
37049;SDS011;22958;51.232;6.826;2023-03-21T05:03:33;35.57;;;8.17;;
37049;SDS011;22958;51.232;6.826;2023-03-21T05:06:04;19.02;;;6.57;;
37049;SDS011;22958;51.232;6.826;2023-03-21T05:08:32;20.95;;;7.60;;
37049;SDS011;22958;51.232;6.826;2023-03-21T05:10:58;24.90;;;7.68;;
37049;SDS011;22958;51.232;6.826;2023-03-21T05:13:24;18.07;;;7.00;;
37049;SDS011;22958;51.232;6.826;2023-03-21T05:15:49;17.93;;;7.47;;
37049;SDS011;22958;51.232;6.826;2023-03-21T05:18:15;20.27;;;7.20;;
37049;SDS011;22958;51.232;6.826;2023-03-21T05:20:49;26.17;;;7.53;;
37049;SDS011;22958;51.232;6.826;2023-03-21T05:23:18;25.45;;;7.60;;
37049;SDS011;22958;51.232;6.826;2023-03-21T05:25:47;21.23;;;7.03;;
37049;SDS011;22958;51.232;6.826;2023-03-21T05:28:14;20.98;;;7.90;;
37049;SDS011;22958;51.232;6.826;2023-03-21T05:30:42;23.23;;;7.20;;
37049;SDS011;22958;51.232;6.826;2023-03-21T05:33:09;19.80;;;7.15;;
37049;SDS011;22958;51.232;6.826;2023-03-21T05:35:35;27.47;;;8.07;;
37049;SDS011;22958;51.232;6.826;2023-03-21T05:38:01;19.93;;;7.17;;
37049;SDS011;22958;51.232;6.826;2023-03-21T05:40:26;30.17;;;7.03;;
37049;SDS011;22958;51.232;6.826;2023-03-21T05:42:52;24.03;;;7.13;;
37049;SDS011;22958;51.232;6.826;2023-03-21T05:45:17;28.33;;;7.70;;
37049;SDS011;22958;51.232;6.826;2023-03-21T05:47:43;21.23;;;6.93;;
37049;SDS011;22958;51.232;6.826;2023-03-21T05:50:09;15.13;;;6.70;;
37049;SDS011;22958;51.232;6.826;2023-03-21T05:52:35;20.38;;;6.75;;
37049;SDS011;22958;51.232;6.826;2023-03-21T05:55:00;22.60;;;7.07;;
37049;SDS011;22958;51.232;6.826;2023-03-21T05:57:26;27.20;;;7.50;;
37049;SDS011;22958;51.232;6.826;2023-03-21T05:59:52;21.88;;;7.57;;
37049;SDS011;22958;51.232;6.826;2023-03-21T06:02:18;24.23;;;7.30;;
37049;SDS011;22958;51.232;6.826;2023-03-21T06:04:44;28.40;;;7.43;;
37049;SDS011;22958;51.232;6.826;2023-03-21T06:07:09;34.60;;;9.80;;
37049;SDS011;22958;51.232;6.826;2023-03-21T06:09:35;23.47;;;8.30;;
37049;SDS011;22958;51.232;6.826;2023-03-21T06:12:00;23.97;;;7.63;;
37049;SDS011;22958;51.232;6.826;2023-03-21T06:14:26;23.03;;;6.80;;
37049;SDS011;22958;51.232;6.826;2023-03-21T06:16:52;20.73;;;7.57;;
37049;SDS011;22958;51.232;6.826;2023-03-21T06:19:20;22.27;;;7.63;;
37049;SDS011;22958;51.232;6.826;2023-03-21T06:21:46;30.07;;;8.07;;
37049;SDS011;22958;51.232;6.826;2023-03-21T06:24:12;28.70;;;7.32;;
37049;SDS011;22958;51.232;6.826;2023-03-21T06:26:37;26.53;;;8.13;;
37049;SDS011;22958;51.232;6.826;2023-03-21T06:29:03;28.53;;;7.97;;
37049;SDS011;22958;51.232;6.826;2023-03-21T06:31:29;21.25;;;7.50;;
37049;SDS011;22958;51.232;6.826;2023-03-21T06:33:55;17.63;;;7.93;;
37049;SDS011;22958;51.232;6.826;2023-03-21T06:36:20;20.87;;;8.17;;
37049;SDS011;22958;51.232;6.826;2023-03-21T06:38:46;21.63;;;7.17;;
37049;SDS011;22958;51.232;6.826;2023-03-21T06:41:12;29.83;;;8.40;;
37049;SDS011;22958;51.232;6.826;2023-03-21T06:43:38;22.52;;;7.13;;
37049;SDS011;22958;51.232;6.826;2023-03-21T06:46:04;23.87;;;7.13;;
37049;SDS011;22958;51.232;6.826;2023-03-21T06:48:30;23.93;;;8.67;;
37049;SDS011;22958;51.232;6.826;2023-03-21T06:50:56;30.38;;;8.10;;
37049;SDS011;22958;51.232;6.826;2023-03-21T06:53:22;35.53;;;8.23;;
37049;SDS011;22958;51.232;6.826;2023-03-21T06:55:51;27.25;;;8.30;;
37049;SDS011;22958;51.232;6.826;2023-03-21T06:58:17;31.35;;;8.38;;
37049;SDS011;22958;51.232;6.826;2023-03-21T07:00:43;28.60;;;8.63;;
37049;SDS011;22958;51.232;6.826;2023-03-21T07:03:09;25.83;;;8.10;;
37049;SDS011;22958;51.232;6.826;2023-03-21T07:05:36;25.92;;;9.02;;
37049;SDS011;22958;51.232;6.826;2023-03-21T07:08:02;25.30;;;7.80;;
37049;SDS011;22958;51.232;6.826;2023-03-21T07:10:28;30.73;;;8.32;;
37049;SDS011;22958;51.232;6.826;2023-03-21T07:12:53;26.37;;;9.10;;
37049;SDS011;22958;51.232;6.826;2023-03-21T07:15:19;30.37;;;8.17;;
37049;SDS011;22958;51.232;6.826;2023-03-21T07:17:45;25.37;;;9.07;;
37049;SDS011;22958;51.232;6.826;2023-03-21T07:20:10;25.43;;;8.03;;
37049;SDS011;22958;51.232;6.826;2023-03-21T07:22:36;25.75;;;8.30;;
37049;SDS011;22958;51.232;6.826;2023-03-21T07:25:02;23.23;;;8.03;;
37049;SDS011;22958;51.232;6.826;2023-03-21T07:27:28;29.48;;;8.18;;
37049;SDS011;22958;51.232;6.826;2023-03-21T07:29:54;42.00;;;9.13;;
37049;SDS011;22958;51.232;6.826;2023-03-21T07:32:20;26.23;;;7.43;;
37049;SDS011;22958;51.232;6.826;2023-03-21T07:34:46;20.07;;;7.73;;
37049;SDS011;22958;51.232;6.826;2023-03-21T07:37:11;23.43;;;7.97;;
37049;SDS011;22958;51.232;6.826;2023-03-21T07:39:37;27.20;;;9.60;;
37049;SDS011;22958;51.232;6.826;2023-03-21T07:42:02;25.17;;;8.30;;
37049;SDS011;22958;51.232;6.826;2023-03-21T07:44:28;27.37;;;8.60;;
37049;SDS011;22958;51.232;6.826;2023-03-21T07:46:54;18.93;;;7.73;;
37049;SDS011;22958;51.232;6.826;2023-03-21T07:49:20;25.70;;;8.93;;
37049;SDS011;22958;51.232;6.826;2023-03-21T07:51:46;29.10;;;8.33;;
37049;SDS011;22958;51.232;6.826;2023-03-21T07:54:11;20.43;;;9.10;;
37049;SDS011;22958;51.232;6.826;2023-03-21T07:56:37;36.30;;;9.13;;
37049;SDS011;22958;51.232;6.826;2023-03-21T07:59:03;33.40;;;9.43;;
37049;SDS011;22958;51.232;6.826;2023-03-21T08:01:29;27.08;;;9.68;;
37049;SDS011;22958;51.232;6.826;2023-03-21T08:03:55;34.30;;;9.17;;
37049;SDS011;22958;51.232;6.826;2023-03-21T08:06:21;28.77;;;10.30;;
37049;SDS011;22958;51.232;6.826;2023-03-21T08:08:47;26.77;;;9.88;;
37049;SDS011;22958;51.232;6.826;2023-03-21T08:11:13;39.33;;;9.57;;
37049;SDS011;22958;51.232;6.826;2023-03-21T08:13:39;34.30;;;10.73;;
37049;SDS011;22958;51.232;6.826;2023-03-21T08:16:05;23.83;;;9.23;;
37049;SDS011;22958;51.232;6.826;2023-03-21T08:18:31;27.27;;;10.52;;
37049;SDS011;22958;51.232;6.826;2023-03-21T08:20:57;27.50;;;10.00;;
37049;SDS011;22958;51.232;6.826;2023-03-21T08:23:23;26.37;;;9.07;;
37049;SDS011;22958;51.232;6.826;2023-03-21T08:25:50;34.40;;;10.40;;
37049;SDS011;22958;51.232;6.826;2023-03-21T08:28:19;36.72;;;11.13;;
37049;SDS011;22958;51.232;6.826;2023-03-21T08:30:46;27.40;;;10.32;;
37049;SDS011;22958;51.232;6.826;2023-03-21T08:33:11;28.40;;;11.73;;
37049;SDS011;22958;51.232;6.826;2023-03-21T08:35:37;34.23;;;12.10;;
37049;SDS011;22958;51.232;6.826;2023-03-21T08:38:04;22.65;;;10.10;;
37049;SDS011;22958;51.232;6.826;2023-03-21T08:40:30;26.17;;;10.90;;
37049;SDS011;22958;51.232;6.826;2023-03-21T08:42:56;30.55;;;11.18;;
37049;SDS011;22958;51.232;6.826;2023-03-21T08:45:22;28.63;;;10.63;;
37049;SDS011;22958;51.232;6.826;2023-03-21T08:47:48;31.17;;;12.40;;
37049;SDS011;22958;51.232;6.826;2023-03-21T08:50:15;46.47;;;12.77;;
37049;SDS011;22958;51.232;6.826;2023-03-21T08:52:45;35.97;;;11.85;;
37049;SDS011;22958;51.232;6.826;2023-03-21T08:55:11;34.93;;;13.47;;
37049;SDS011;22958;51.232;6.826;2023-03-21T08:57:38;28.65;;;11.90;;
37049;SDS011;22958;51.232;6.826;2023-03-21T09:00:04;35.37;;;12.00;;
37049;SDS011;22958;51.232;6.826;2023-03-21T09:02:36;47.63;;;13.25;;
37049;SDS011;22958;51.232;6.826;2023-03-21T09:05:01;41.30;;;14.40;;
37049;SDS011;22958;51.232;6.826;2023-03-21T09:07:30;34.28;;;12.68;;
37049;SDS011;22958;51.232;6.826;2023-03-21T09:09:58;34.50;;;12.90;;
37049;SDS011;22958;51.232;6.826;2023-03-21T09:12:24;44.42;;;14.23;;
37049;SDS011;22958;51.232;6.826;2023-03-21T09:14:49;29.77;;;12.47;;
37049;SDS011;22958;51.232;6.826;2023-03-21T09:17:17;39.30;;;13.85;;
37049;SDS011;22958;51.232;6.826;2023-03-21T09:19:44;32.38;;;12.77;;
37049;SDS011;22958;51.232;6.826;2023-03-21T09:22:11;43.47;;;14.05;;
37049;SDS011;22958;51.232;6.826;2023-03-21T09:24:38;39.83;;;12.05;;
37049;SDS011;22958;51.232;6.826;2023-03-21T09:27:05;30.05;;;11.93;;
37049;SDS011;22958;51.232;6.826;2023-03-21T09:29:31;30.38;;;11.90;;
37049;SDS011;22958;51.232;6.826;2023-03-21T09:31:58;32.78;;;11.68;;
37049;SDS011;22958;51.232;6.826;2023-03-21T09:34:23;39.17;;;13.53;;
37049;SDS011;22958;51.232;6.826;2023-03-21T09:36:50;38.15;;;11.95;;
37049;SDS011;22958;51.232;6.826;2023-03-21T09:39:20;31.67;;;11.55;;
37049;SDS011;22958;51.232;6.826;2023-03-21T09:41:56;30.60;;;11.95;;
37049;SDS011;22958;51.232;6.826;2023-03-21T09:47:19;33.28;;;11.52;;
37049;SDS011;22958;51.232;6.826;2023-03-21T09:50:00;30.25;;;10.95;;
37049;SDS011;22958;51.232;6.826;2023-03-21T09:52:31;22.45;;;10.18;;
37049;SDS011;22958;51.232;6.826;2023-03-21T09:55:09;23.38;;;10.93;;
37049;SDS011;22958;51.232;6.826;2023-03-21T09:57:44;28.50;;;10.85;;
37049;SDS011;22958;51.232;6.826;2023-03-21T10:00:37;21.75;;;10.65;;
37049;SDS011;22958;51.232;6.826;2023-03-21T10:03:22;23.00;;;10.85;;
37049;SDS011;22958;51.232;6.826;2023-03-21T10:05:52;28.50;;;10.27;;
37049;SDS011;22958;51.232;6.826;2023-03-21T10:08:23;28.92;;;11.00;;
37049;SDS011;22958;51.232;6.826;2023-03-21T10:11:01;36.80;;;9.70;;
37049;SDS011;22958;51.232;6.826;2023-03-21T10:19:03;31.85;;;10.05;;
37049;SDS011;22958;51.232;6.826;2023-03-21T10:21:34;23.70;;;9.57;;
37049;SDS011;22958;51.232;6.826;2023-03-21T10:24:07;26.40;;;8.85;;
37049;SDS011;22958;51.232;6.826;2023-03-21T10:26:36;28.30;;;8.68;;
37049;SDS011;22958;51.232;6.826;2023-03-21T10:29:02;22.00;;;8.63;;
37049;SDS011;22958;51.232;6.826;2023-03-21T10:31:28;28.33;;;9.50;;
37049;SDS011;22958;51.232;6.826;2023-03-21T10:33:56;20.35;;;8.85;;
37049;SDS011;22958;51.232;6.826;2023-03-21T10:36:26;24.98;;;10.20;;
37049;SDS011;22958;51.232;6.826;2023-03-21T10:39:02;22.58;;;8.65;;
37049;SDS011;22958;51.232;6.826;2023-03-21T10:41:35;25.95;;;8.85;;
37049;SDS011;22958;51.232;6.826;2023-03-21T10:48:56;25.45;;;8.95;;
37049;SDS011;22958;51.232;6.826;2023-03-21T10:51:22;21.13;;;8.50;;
37049;SDS011;22958;51.232;6.826;2023-03-21T10:53:56;27.27;;;8.65;;
37049;SDS011;22958;51.232;6.826;2023-03-21T10:56:26;22.65;;;7.95;;
37049;SDS011;22958;51.232;6.826;2023-03-21T10:58:56;24.05;;;9.13;;
37049;SDS011;22958;51.232;6.826;2023-03-21T11:01:38;20.55;;;8.63;;
37049;SDS011;22958;51.232;6.826;2023-03-21T11:04:07;24.52;;;9.07;;
37049;SDS011;22958;51.232;6.826;2023-03-21T11:06:40;23.70;;;9.30;;
37049;SDS011;22958;51.232;6.826;2023-03-21T11:09:13;27.13;;;8.93;;
37049;SDS011;22958;51.232;6.826;2023-03-21T11:11:48;21.48;;;7.88;;
37049;SDS011;22958;51.232;6.826;2023-03-21T11:14:39;23.48;;;7.70;;
37049;SDS011;22958;51.232;6.826;2023-03-21T11:19:45;25.48;;;7.50;;
37049;SDS011;22958;51.232;6.826;2023-03-21T11:22:12;25.48;;;7.75;;
37049;SDS011;22958;51.232;6.826;2023-03-21T11:24:48;22.50;;;7.97;;
37049;SDS011;22958;51.232;6.826;2023-03-21T11:27:20;16.73;;;6.03;;
37049;SDS011;22958;51.232;6.826;2023-03-21T11:29:47;19.70;;;7.27;;
37049;SDS011;22958;51.232;6.826;2023-03-21T11:32:25;20.60;;;7.78;;
37049;SDS011;22958;51.232;6.826;2023-03-21T11:37:44;29.23;;;7.53;;
37049;SDS011;22958;51.232;6.826;2023-03-21T11:40:24;20.70;;;7.13;;
37049;SDS011;22958;51.232;6.826;2023-03-21T11:45:22;19.02;;;7.60;;
37049;SDS011;22958;51.232;6.826;2023-03-21T11:47:53;16.35;;;5.65;;
37049;SDS011;22958;51.232;6.826;2023-03-21T11:50:28;27.75;;;6.65;;
37049;SDS011;22958;51.232;6.826;2023-03-21T12:01:14;20.55;;;6.20;;
37049;SDS011;22958;51.232;6.826;2023-03-21T12:06:30;20.77;;;6.38;;
37049;SDS011;22958;51.232;6.826;2023-03-21T12:09:07;15.63;;;5.60;;
37049;SDS011;22958;51.232;6.826;2023-03-21T12:14:42;15.45;;;6.30;;
37049;SDS011;22958;51.232;6.826;2023-03-21T12:25:34;20.92;;;6.90;;
37049;SDS011;22958;51.232;6.826;2023-03-21T12:28:30;18.63;;;7.70;;
37049;SDS011;22958;51.232;6.826;2023-03-21T12:33:46;12.57;;;5.47;;
37049;SDS011;22958;51.232;6.826;2023-03-21T12:44:49;15.88;;;6.15;;
37049;SDS011;22958;51.232;6.826;2023-03-21T12:47:21;19.17;;;5.60;;
37049;SDS011;22958;51.232;6.826;2023-03-21T12:52:32;25.30;;;7.35;;
37049;SDS011;22958;51.232;6.826;2023-03-21T12:55:05;21.88;;;7.72;;
37049;SDS011;22958;51.232;6.826;2023-03-21T12:57:44;33.72;;;9.52;;
37049;SDS011;22958;51.232;6.826;2023-03-21T13:00:19;21.85;;;7.28;;
37049;SDS011;22958;51.232;6.826;2023-03-21T13:05:33;16.83;;;6.35;;
37049;SDS011;22958;51.232;6.826;2023-03-21T13:08:06;20.33;;;7.18;;
37049;SDS011;22958;51.232;6.826;2023-03-21T13:10:46;16.98;;;7.13;;
37049;SDS011;22958;51.232;6.826;2023-03-21T13:18:22;11.18;;;5.82;;
37049;SDS011;22958;51.232;6.826;2023-03-21T13:20:56;17.73;;;5.90;;
37049;SDS011;22958;51.232;6.826;2023-03-21T13:23:25;17.85;;;5.93;;
37049;SDS011;22958;51.232;6.826;2023-03-21T13:26:01;18.97;;;6.07;;
37049;SDS011;22958;51.232;6.826;2023-03-21T13:28:28;17.23;;;5.22;;
37049;SDS011;22958;51.232;6.826;2023-03-21T13:33:40;11.75;;;5.07;;
37049;SDS011;22958;51.232;6.826;2023-03-21T13:36:13;15.93;;;5.68;;
37049;SDS011;22958;51.232;6.826;2023-03-21T13:38:41;16.48;;;6.07;;
37049;SDS011;22958;51.232;6.826;2023-03-21T13:41:16;11.10;;;5.63;;
37049;SDS011;22958;51.232;6.826;2023-03-21T13:59:56;13.60;;;5.20;;
37049;SDS011;22958;51.232;6.826;2023-03-21T14:04:30;11.13;;;4.82;;
37049;SDS011;22958;51.232;6.826;2023-03-21T14:06:57;12.50;;;5.60;;
37049;SDS011;22958;51.232;6.826;2023-03-21T14:09:30;15.05;;;5.93;;
37049;SDS011;22958;51.232;6.826;2023-03-21T14:12:00;13.23;;;5.53;;
37049;SDS011;22958;51.232;6.826;2023-03-21T14:14:32;20.20;;;5.70;;
37049;SDS011;22958;51.232;6.826;2023-03-21T14:17:23;10.45;;;5.40;;
37049;SDS011;22958;51.232;6.826;2023-03-21T14:19:51;14.73;;;6.15;;
37049;SDS011;22958;51.232;6.826;2023-03-21T14:22:18;23.02;;;6.20;;
37049;SDS011;22958;51.232;6.826;2023-03-21T14:24:47;17.40;;;5.20;;
37049;SDS011;22958;51.232;6.826;2023-03-21T14:27:18;14.13;;;5.20;;
37049;SDS011;22958;51.232;6.826;2023-03-21T14:29:45;10.90;;;5.35;;
37049;SDS011;22958;51.232;6.826;2023-03-21T14:32:17;18.27;;;6.30;;
37049;SDS011;22958;51.232;6.826;2023-03-21T14:34:45;12.27;;;5.43;;
37049;SDS011;22958;51.232;6.826;2023-03-21T14:37:24;12.98;;;5.28;;
37049;SDS011;22958;51.232;6.826;2023-03-21T14:42:47;10.95;;;5.00;;
37049;SDS011;22958;51.232;6.826;2023-03-21T14:53:25;18.55;;;5.57;;
37049;SDS011;22958;51.232;6.826;2023-03-21T14:56:00;14.05;;;5.18;;
37049;SDS011;22958;51.232;6.826;2023-03-21T14:58:31;14.25;;;5.72;;
37049;SDS011;22958;51.232;6.826;2023-03-21T15:03:28;12.02;;;5.88;;
37049;SDS011;22958;51.232;6.826;2023-03-21T15:08:22;16.27;;;4.63;;
37049;SDS011;22958;51.232;6.826;2023-03-21T15:13:26;10.98;;;5.25;;
37049;SDS011;22958;51.232;6.826;2023-03-21T15:15:54;13.43;;;4.70;;
37049;SDS011;22958;51.232;6.826;2023-03-21T15:18:24;12.67;;;4.43;;
37049;SDS011;22958;51.232;6.826;2023-03-21T15:20:53;15.45;;;5.20;;
37049;SDS011;22958;51.232;6.826;2023-03-21T15:23:29;10.55;;;4.18;;
37049;SDS011;22958;51.232;6.826;2023-03-21T15:26:00;13.70;;;4.18;;
37049;SDS011;22958;51.232;6.826;2023-03-21T15:28:28;12.10;;;4.75;;
37049;SDS011;22958;51.232;6.826;2023-03-21T15:30:53;14.80;;;4.40;;
37049;SDS011;22958;51.232;6.826;2023-03-21T15:33:22;10.68;;;4.43;;
37049;SDS011;22958;51.232;6.826;2023-03-21T15:35:50;12.32;;;4.72;;
37049;SDS011;22958;51.232;6.826;2023-03-21T15:38:22;13.07;;;5.05;;
37049;SDS011;22958;51.232;6.826;2023-03-21T15:43:49;13.48;;;5.30;;
37049;SDS011;22958;51.232;6.826;2023-03-21T15:51:47;13.98;;;4.75;;
37049;SDS011;22958;51.232;6.826;2023-03-21T15:57:23;11.05;;;5.25;;
37049;SDS011;22958;51.232;6.826;2023-03-21T16:00:17;10.88;;;5.30;;
37049;SDS011;22958;51.232;6.826;2023-03-21T16:02:50;15.02;;;5.28;;
37049;SDS011;22958;51.232;6.826;2023-03-21T16:07:52;11.75;;;4.95;;
37049;SDS011;22958;51.232;6.826;2023-03-21T16:12:54;10.18;;;5.07;;
37049;SDS011;22958;51.232;6.826;2023-03-21T16:15:19;10.03;;;4.77;;
37049;SDS011;22958;51.232;6.826;2023-03-21T16:20:17;12.90;;;4.90;;
37049;SDS011;22958;51.232;6.826;2023-03-21T16:22:44;13.00;;;4.97;;
37049;SDS011;22958;51.232;6.826;2023-03-21T16:25:11;13.13;;;5.13;;
37049;SDS011;22958;51.232;6.826;2023-03-21T16:27:37;11.65;;;5.72;;
37049;SDS011;22958;51.232;6.826;2023-03-21T16:30:03;11.47;;;5.20;;
37049;SDS011;22958;51.232;6.826;2023-03-21T16:32:30;11.13;;;5.30;;
37049;SDS011;22958;51.232;6.826;2023-03-21T16:34:56;10.88;;;5.38;;
37049;SDS011;22958;51.232;6.826;2023-03-21T16:37:22;9.77;;;4.97;;
37049;SDS011;22958;51.232;6.826;2023-03-21T16:39:47;20.63;;;5.13;;
37049;SDS011;22958;51.232;6.826;2023-03-21T16:42:13;13.70;;;5.10;;
37049;SDS011;22958;51.232;6.826;2023-03-21T16:44:38;13.47;;;5.47;;
37049;SDS011;22958;51.232;6.826;2023-03-21T16:47:17;9.90;;;5.27;;
37049;SDS011;22958;51.232;6.826;2023-03-21T16:49:44;11.45;;;4.05;;
37049;SDS011;22958;51.232;6.826;2023-03-21T16:52:11;15.93;;;5.22;;
37049;SDS011;22958;51.232;6.826;2023-03-21T16:54:38;13.95;;;5.10;;
37049;SDS011;22958;51.232;6.826;2023-03-21T16:59:32;12.90;;;5.38;;
37049;SDS011;22958;51.232;6.826;2023-03-21T17:01:59;15.50;;;5.00;;
37049;SDS011;22958;51.232;6.826;2023-03-21T17:04:25;10.05;;;5.60;;
37049;SDS011;22958;51.232;6.826;2023-03-21T17:06:51;29.10;;;6.30;;
37049;SDS011;22958;51.232;6.826;2023-03-21T17:09:19;13.13;;;5.43;;
37049;SDS011;22958;51.232;6.826;2023-03-21T17:11:47;15.30;;;5.10;;
37049;SDS011;22958;51.232;6.826;2023-03-21T17:14:13;12.95;;;4.57;;
37049;SDS011;22958;51.232;6.826;2023-03-21T17:16:42;13.05;;;5.05;;